Time;durP1;ratioP1;P1;durP2;ratioP2;P2;SDS_P1;SDS_P2;PMS_P1;PMS_P2;Temp;Humidity;BMP_temperature;BMP_pressure;BME280_temperature;BME280_humidity;BME280_pressure;Samples;Min_cycle;Max_cycle;Signal;HPM_P1;HPM_P2
2024/04/07 00:00:53;;;;;;;2.93;2.20;;;11.30;1.00;;;;;;5055524;28;20311;-68
2024/04/07 00:03:20;;;;;;;3.53;2.80;;;11.30;1.00;;;;;;5055727;28;20304;-69
2024/04/07 00:05:52;;;;;;;4.27;2.90;;;11.20;20.30;;;;;;5055338;28;20208;-68
2024/04/07 00:08:19;;;;;;;8.97;3.33;;;11.40;39.00;;;;;;5055298;28;20213;-68
2024/04/07 00:10:45;;;;;;;3.73;3.07;;;11.40;62.30;;;;;;5056769;28;20224;-68
2024/04/07 00:13:13;;;;;;;3.80;3.50;;;11.30;79.50;;;;;;5056162;28;20196;-69
2024/04/07 00:15:39;;;;;;;5.30;3.17;;;11.30;95.50;;;;;;5055104;28;20219;-69
2024/04/07 00:18:07;;;;;;;3.20;2.90;;;11.30;99.90;;;;;;5056150;28;20204;-69
2024/04/07 00:20:33;;;;;;;3.33;3.03;;;11.20;99.90;;;;;;5056139;28;20243;-68
2024/04/07 00:22:59;;;;;;;3.60;2.63;;;11.20;99.90;;;;;;5055507;28;20205;-68
2024/04/07 00:25:25;;;;;;;2.77;2.57;;;11.20;92.60;;;;;;5055177;28;20251;-69
2024/04/07 00:27:52;;;;;;;4.43;2.67;;;11.30;60.80;;;;;;5056395;28;20263;-69
2024/04/07 00:30:19;;;;;;;4.50;2.80;;;11.30;42.50;;;;;;5055449;28;20228;-68
2024/04/07 00:32:46;;;;;;;3.20;2.93;;;11.40;19.40;;;;;;5055895;28;20599;-69
2024/04/07 00:35:13;;;;;;;3.00;2.60;;;11.50;10.10;;;;;;5055789;28;20271;-69
2024/04/07 00:37:40;;;;;;;3.37;3.00;;;11.50;1.00;;;;;;5055742;28;20211;-69
2024/04/07 00:40:08;;;;;;;4.47;3.47;;;11.40;5.60;;;;;;5054951;28;20724;-68
2024/04/07 00:42:34;;;;;;;5.10;3.27;;;11.40;47.40;;;;;;5054990;28;20208;-68
2024/04/07 00:45:00;;;;;;;3.50;2.80;;;11.30;87.90;;;;;;5054567;28;20248;-69
2024/04/07 00:47:29;;;;;;;3.00;2.70;;;11.30;93.00;;;;;;5054748;28;20251;-69
2024/04/07 00:49:55;;;;;;;3.63;2.13;;;11.20;73.90;;;;;;5054480;28;20238;-67
2024/04/07 00:52:23;;;;;;;2.97;2.67;;;11.20;75.80;;;;;;5054719;28;20207;-68
2024/04/07 00:54:49;;;;;;;3.30;2.50;;;11.20;24.30;;;;;;5054745;28;20214;-68
2024/04/07 00:57:16;;;;;;;5.30;2.40;;;11.10;25.90;;;;;;5054821;28;20212;-68
2024/04/07 00:59:42;;;;;;;2.83;2.33;;;11.20;1.00;;;;;;5054721;28;20234;-67
2024/04/07 01:02:09;;;;;;;3.20;2.10;;;11.20;1.00;;;;;;5054306;28;20696;-67
2024/04/07 01:04:36;;;;;;;4.00;2.00;;;11.30;1.00;;;;;;5054483;28;20216;-67
2024/04/07 01:07:04;;;;;;;2.53;2.33;;;11.20;1.00;;;;;;5055050;28;20208;-67
2024/04/07 01:09:30;;;;;;;6.20;1.90;;;11.20;1.00;;;;;;5054439;28;20697;-69
2024/04/07 01:11:57;;;;;;;3.77;2.10;;;11.20;1.00;;;;;;5054159;28;20199;-69
2024/04/07 01:14:22;;;;;;;4.27;2.00;;;11.20;1.00;;;;;;5054356;28;20303;-68
2024/04/07 01:16:49;;;;;;;2.87;2.53;;;11.10;1.00;;;;;;5054284;28;20291;-68
2024/04/07 01:19:15;;;;;;;5.83;2.33;;;11.10;1.00;;;;;;5055637;28;20299;-68
2024/04/07 01:21:43;;;;;;;4.37;2.73;;;11.00;1.00;;;;;;5054722;28;20319;-68
2024/04/07 01:24:10;;;;;;;3.60;3.13;;;11.00;56.10;;;;;;5054139;28;20208;-68
2024/04/07 01:26:37;;;;;;;3.63;2.97;;;11.10;99.90;;;;;;5053806;28;20748;-68
2024/04/07 01:29:03;;;;;;;4.63;2.80;;;11.10;99.90;;;;;;5053919;28;20232;-68
2024/04/07 01:31:31;;;;;;;3.27;2.97;;;11.10;99.90;;;;;;5053950;28;20224;-67
2024/04/07 01:33:57;;;;;;;5.07;3.10;;;11.00;99.90;;;;;;5054038;28;20220;-67
2024/04/07 01:36:24;;;;;;;3.00;2.70;;;11.00;99.90;;;;;;5053937;28;20204;-67
2024/04/07 01:38:50;;;;;;;3.63;2.90;;;10.90;99.90;;;;;;5054082;28;20262;-67
2024/04/07 01:41:18;;;;;;;3.23;2.93;;;10.90;99.90;;;;;;5054642;28;20232;-67
2024/04/07 01:43:44;;;;;;;3.60;3.20;;;10.90;99.90;;;;;;5053810;28;20215;-68
2024/04/07 01:46:11;;;;;;;4.50;3.67;;;10.80;99.90;;;;;;5054047;28;20286;-67
2024/04/07 01:48:37;;;;;;;4.37;3.90;;;10.80;99.90;;;;;;5053456;28;20576;-67
2024/04/07 01:51:04;;;;;;;6.63;4.30;;;10.90;99.90;;;;;;5054368;28;20312;-67
2024/04/07 01:53:30;;;;;;;4.80;4.40;;;10.90;99.90;;;;;;5053759;28;20219;-67
2024/04/07 01:55:57;;;;;;;7.03;4.53;;;10.90;99.90;;;;;;5053681;28;20200;-67
2024/04/07 01:58:24;;;;;;;5.63;5.03;;;10.90;99.90;;;;;;5053456;28;20747;-67
2024/04/07 02:00:51;;;;;;;4.83;4.33;;;10.90;99.90;;;;;;5053475;28;20322;-67
2024/04/07 02:03:17;;;;;;;5.87;4.20;;;10.90;99.90;;;;;;5053413;28;20299;-67
2024/04/07 02:05:44;;;;;;;4.73;3.97;;;10.90;99.90;;;;;;5053189;28;20299;-67
2024/04/07 02:08:10;;;;;;;4.60;4.03;;;10.90;99.90;;;;;;5054071;28;20224;-67
2024/04/07 02:10:37;;;;;;;6.73;3.90;;;10.90;99.90;;;;;;5053871;28;20223;-67
2024/04/07 02:13:03;;;;;;;4.77;4.13;;;10.80;99.90;;;;;;5053272;28;20212;-67
2024/04/07 02:15:35;;;;;;;4.93;3.90;;;10.80;99.90;;;;;;5053630;28;20200;-67
2024/04/07 02:18:00;;;;;;;4.10;3.70;;;10.80;99.90;;;;;;5054187;28;20283;-68
2024/04/07 02:20:27;;;;;;;5.20;3.60;;;10.70;99.90;;;;;;5053297;28;20315;-68
2024/04/07 02:22:53;;;;;;;4.23;3.83;;;10.70;99.90;;;;;;5053805;28;20208;-68
2024/04/07 02:25:20;;;;;;;4.10;3.43;;;10.60;99.90;;;;;;5053446;28;20210;-68
2024/04/07 02:27:46;;;;;;;3.50;2.87;;;10.60;99.90;;;;;;5053039;28;20588;-68
2024/04/07 02:30:13;;;;;;;3.77;2.90;;;10.50;99.90;;;;;;5056714;28;20224;-68
2024/04/07 02:32:41;;;;;;;4.13;2.70;;;10.50;99.90;;;;;;5059106;28;20637;-68
2024/04/07 02:35:07;;;;;;;3.60;2.57;;;10.40;99.90;;;;;;5057788;28;20704;-68
2024/04/07 02:37:33;;;;;;;4.07;2.70;;;10.50;99.90;;;;;;5057400;28;20207;-68
2024/04/07 02:40:00;;;;;;;3.50;3.17;;;10.50;99.90;;;;;;5057201;28;20666;-67
2024/04/07 02:42:26;;;;;;;2.67;2.47;;;10.50;99.90;;;;;;5057273;28;20212;-66
2024/04/07 02:50:23;;;;;;;4.23;3.50;;;10.30;99.90;;;;;;5056823;28;20647;-67
2024/04/07 02:52:50;;;;;;;4.90;3.10;;;10.40;99.90;;;;;;5057386;28;20302;-68
2024/04/07 02:55:17;;;;;;;4.63;3.17;;;10.40;99.90;;;;;;5057667;28;20208;-68
2024/04/07 02:57:42;;;;;;;3.43;3.13;;;10.40;99.90;;;;;;5057005;28;20303;-68
2024/04/07 03:00:13;;;;;;;3.97;2.70;;;10.40;99.90;;;;;;5056772;28;20311;-68
2024/04/07 03:02:40;;;;;;;4.60;3.10;;;10.40;99.90;;;;;;5056842;28;20266;-68
2024/04/07 03:05:07;;;;;;;4.60;3.17;;;10.50;99.90;;;;;;5056779;28;20204;-68
2024/04/07 03:07:35;;;;;;;3.90;3.00;;;10.50;99.90;;;;;;5057919;28;20208;-67
2024/04/07 03:10:01;;;;;;;5.73;3.50;;;10.50;99.90;;;;;;5057012;28;20240;-67
2024/04/07 03:12:28;;;;;;;3.93;3.37;;;10.40;99.90;;;;;;5056670;28;20262;-67
2024/04/07 03:14:55;;;;;;;3.47;3.17;;;10.40;99.90;;;;;;5056619;28;20200;-67
2024/04/07 03:17:21;;;;;;;4.27;3.37;;;10.40;99.90;;;;;;5056245;28;20685;-67
2024/04/07 03:19:48;;;;;;;6.27;3.37;;;10.40;99.90;;;;;;5056305;28;20208;-67
2024/04/07 03:22:14;;;;;;;4.77;2.93;;;10.40;99.90;;;;;;5056526;28;20220;-67
2024/04/07 03:24:42;;;;;;;3.70;3.33;;;10.40;99.90;;;;;;5057260;28;20641;-67
2024/04/07 03:27:08;;;;;;;2.77;2.40;;;10.40;99.90;;;;;;5056160;28;20673;-68
2024/04/07 03:29:35;;;;;;;3.73;2.73;;;10.40;99.90;;;;;;5058093;28;20323;-68
2024/04/07 03:32:00;;;;;;;5.23;2.57;;;10.50;99.90;;;;;;5056298;28;20210;-68
2024/04/07 03:34:27;;;;;;;5.23;1.97;;;10.50;99.90;;;;;;5056286;28;20283;-68
2024/04/07 03:36:53;;;;;;;3.50;2.00;;;10.50;99.90;;;;;;5057077;28;20216;-67
2024/04/07 03:39:20;;;;;;;2.97;1.93;;;10.40;99.90;;;;;;5056266;28;20721;-68
2024/04/07 03:41:48;;;;;;;4.47;2.40;;;10.30;99.90;;;;;;5056774;28;20597;-68
2024/04/07 03:44:15;;;;;;;3.80;2.40;;;10.30;99.90;;;;;;5056192;28;20204;-67
2024/04/07 03:46:42;;;;;;;2.90;2.10;;;10.30;99.90;;;;;;5056124;28;20208;-67
2024/04/07 03:49:09;;;;;;;4.27;2.20;;;10.30;99.90;;;;;;5055944;28;20243;-68
2024/04/07 03:51:35;;;;;;;3.43;2.07;;;10.30;99.90;;;;;;5055938;28;20699;-67
2024/04/07 03:54:03;;;;;;;2.77;1.93;;;10.30;99.90;;;;;;5057108;28;20296;-67
2024/04/07 03:56:28;;;;;;;3.93;2.20;;;10.30;99.90;;;;;;5057945;28;20641;-68
2024/04/07 03:58:57;;;;;;;2.97;2.00;;;10.20;99.90;;;;;;5056009;28;20204;-68
2024/04/07 04:01:23;;;;;;;3.53;2.03;;;10.20;99.90;;;;;;5055679;28;20784;-68
2024/04/07 04:03:50;;;;;;;2.33;1.90;;;10.20;99.90;;;;;;5056043;28;20295;-68
2024/04/07 04:06:17;;;;;;;2.60;2.37;;;10.30;99.90;;;;;;5056054;28;20299;-68
2024/04/07 04:08:45;;;;;;;2.00;1.73;;;10.30;99.90;;;;;;5055305;28;20224;-68
2024/04/07 04:11:11;;;;;;;3.27;2.07;;;10.30;99.90;;;;;;5055833;28;20327;-68
2024/04/07 04:13:39;;;;;;;2.60;2.10;;;10.20;99.90;;;;;;5055393;28;20665;-68
2024/04/07 04:16:06;;;;;;;2.90;2.60;;;10.20;99.90;;;;;;5055253;28;20661;-68
2024/04/07 04:18:33;;;;;;;2.60;2.40;;;10.10;99.90;;;;;;5055574;28;20211;-68
2024/04/07 04:20:59;;;;;;;2.43;2.07;;;10.10;99.90;;;;;;5056044;28;20326;-68
2024/04/07 04:23:26;;;;;;;2.53;2.33;;;10.10;99.90;;;;;;5055016;28;20299;-68
2024/04/07 04:25:52;;;;;;;2.63;2.43;;;10.10;99.90;;;;;;5055138;28;20582;-68
2024/04/07 04:28:21;;;;;;;6.07;2.97;;;10.10;99.90;;;;;;5055164;28;20224;-68
2024/04/07 04:30:53;;;;;;;2.73;2.37;;;10.00;99.90;;;;;;5055959;28;20286;-68
2024/04/07 04:33:21;;;;;;;2.90;2.67;;;10.00;99.90;;;;;;5055146;28;20276;-68
2024/04/07 04:35:47;;;;;;;3.13;2.83;;;9.90;99.90;;;;;;5056039;28;20238;-68
2024/04/07 04:38:14;;;;;;;3.50;3.13;;;9.90;99.90;;;;;;5054997;28;20660;-68
2024/04/07 04:40:40;;;;;;;4.93;3.30;;;9.80;99.90;;;;;;5054960;28;20228;-68
2024/04/07 04:43:07;;;;;;;4.17;2.97;;;9.80;99.90;;;;;;5054876;28;20200;-68
2024/04/07 04:45:33;;;;;;;3.43;2.97;;;9.90;99.90;;;;;;5055598;28;20204;-68
2024/04/07 04:48:00;;;;;;;3.80;2.93;;;9.90;99.90;;;;;;5054455;28;20211;-68
2024/04/07 04:50:27;;;;;;;2.63;2.20;;;9.90;99.90;;;;;;5055151;28;20316;-68
2024/04/07 04:52:54;;;;;;;4.10;2.10;;;9.90;99.90;;;;;;5054607;28;20212;-68
2024/04/07 04:55:20;;;;;;;2.97;2.67;;;9.80;99.90;;;;;;5055213;28;20222;-68
2024/04/07 04:57:48;;;;;;;2.30;2.10;;;9.70;99.90;;;;;;5055283;28;20294;-68
2024/04/07 05:00:14;;;;;;;5.83;3.30;;;9.80;99.90;;;;;;5054176;28;20710;-68
2024/04/07 05:02:42;;;;;;;3.23;2.53;;;9.70;99.90;;;;;;5054700;28;20204;-67
2024/04/07 05:05:09;;;;;;;3.97;2.50;;;9.70;99.90;;;;;;5054609;28;20303;-67
2024/04/07 05:07:37;;;;;;;4.93;2.80;;;9.70;99.90;;;;;;5054086;28;20211;-67
2024/04/07 05:10:04;;;;;;;3.60;2.30;;;9.70;99.90;;;;;;5054628;28;20242;-68
2024/04/07 05:12:31;;;;;;;2.23;2.03;;;9.70;99.90;;;;;;5053994;28;20597;-68
2024/04/07 05:14:56;;;;;;;2.33;1.93;;;9.80;99.90;;;;;;5054071;28;20215;-68
2024/04/07 05:17:25;;;;;;;2.33;1.60;;;9.80;99.90;;;;;;5056485;28;20295;-66
2024/04/07 05:19:51;;;;;;;2.03;1.77;;;9.90;99.90;;;;;;5057403;28;20228;-66
2024/04/07 05:22:18;;;;;;;4.00;2.20;;;9.90;99.90;;;;;;5054499;28;20199;-68
2024/04/07 05:24:45;;;;;;;2.87;2.27;;;10.00;99.90;;;;;;5054730;28;20243;-68
2024/04/07 05:27:12;;;;;;;4.23;2.37;;;10.00;99.90;;;;;;5054673;28;20216;-68
2024/04/07 05:29:38;;;;;;;2.50;2.30;;;10.00;99.90;;;;;;5054133;28;20311;-68
2024/04/07 05:32:06;;;;;;;3.43;2.63;;;10.00;99.90;;;;;;5054347;28;20733;-68
2024/04/07 05:34:32;;;;;;;3.70;2.40;;;10.00;99.90;;;;;;5054183;28;20303;-68
2024/04/07 05:36:59;;;;;;;3.13;2.83;;;10.00;99.90;;;;;;5054062;28;20282;-68
2024/04/07 05:39:25;;;;;;;3.07;2.70;;;10.00;99.90;;;;;;5055049;28;20231;-68
2024/04/07 05:41:53;;;;;;;4.00;2.67;;;10.00;99.90;;;;;;5054185;28;20232;-68
2024/04/07 05:44:19;;;;;;;3.53;2.63;;;10.00;99.90;;;;;;5054641;28;20661;-68
2024/04/07 05:46:46;;;;;;;3.17;2.63;;;10.00;99.90;;;;;;5054541;28;20253;-69
2024/04/07 05:49:11;;;;;;;3.70;2.40;;;10.00;99.90;;;;;;5054075;28;20252;-67
2024/04/07 05:51:38;;;;;;;4.07;2.60;;;10.10;99.90;;;;;;5054138;28;20315;-68
2024/04/07 05:54:04;;;;;;;2.80;2.50;;;10.10;99.90;;;;;;5053725;28;20216;-68
2024/04/07 05:56:31;;;;;;;2.57;2.37;;;10.10;99.90;;;;;;5053897;28;20290;-68
2024/04/07 05:58:58;;;;;;;2.67;2.47;;;10.00;99.90;;;;;;5053716;28;20295;-68
2024/04/07 06:01:26;;;;;;;2.60;2.20;;;10.10;99.90;;;;;;5053748;28;20278;-68
2024/04/07 06:03:51;;;;;;;3.40;2.50;;;10.10;99.90;;;;;;5053398;28;20303;-68
2024/04/07 06:06:18;;;;;;;3.20;2.20;;;10.20;99.90;;;;;;5053751;28;20643;-68
2024/04/07 06:08:44;;;;;;;9.47;3.00;;;10.20;99.90;;;;;;5054225;28;20224;-68
2024/04/07 06:11:11;;;;;;;2.20;2.00;;;10.30;99.90;;;;;;5055382;28;20250;-67
2024/04/07 06:13:37;;;;;;;2.23;1.90;;;10.40;99.90;;;;;;5053463;28;20674;-68
2024/04/07 06:16:05;;;;;;;2.10;1.90;;;10.40;99.90;;;;;;5053695;28;20207;-68
2024/04/07 06:18:34;;;;;;;4.13;2.00;;;10.50;99.90;;;;;;5053675;28;20208;-68
2024/04/07 06:21:01;;;;;;;3.77;1.80;;;10.50;99.90;;;;;;5053207;28;20290;-68
2024/04/07 06:23:27;;;;;;;5.77;2.50;;;10.70;99.90;;;;;;5053782;28;20208;-67
2024/04/07 06:25:53;;;;;;;1.90;1.80;;;10.80;99.90;;;;;;5053366;28;20214;-68
2024/04/07 06:28:19;;;;;;;2.20;2.00;;;10.80;92.00;;;;;;5053753;28;20295;-68
2024/04/07 06:30:47;;;;;;;2.87;2.00;;;10.90;97.30;;;;;;5052898;28;20319;-66
2024/04/07 06:33:15;;;;;;;2.17;1.90;;;10.90;99.90;;;;;;5053216;28;20212;-67
2024/04/07 06:35:43;;;;;;;1.70;1.60;;;11.00;99.90;;;;;;5054229;28;20239;-67
2024/04/07 06:38:08;;;;;;;2.57;1.40;;;11.10;90.20;;;;;;5053223;28;20208;-69
2024/04/07 06:40:36;;;;;;;2.10;1.90;;;11.30;81.50;;;;;;5053287;28;20227;-68
2024/04/07 06:43:02;;;;;;;2.43;1.80;;;11.40;63.50;;;;;;5053503;28;20207;-67
2024/04/07 06:45:29;;;;;;;3.00;2.23;;;11.60;66.90;;;;;;5053460;28;20292;-68
2024/04/07 06:47:55;;;;;;;2.17;2.00;;;11.80;99.90;;;;;;5053504;28;20262;-68
2024/04/07 06:50:23;;;;;;;3.00;2.30;;;11.80;90.40;;;;;;5053562;28;20232;-68
2024/04/07 06:52:49;;;;;;;2.53;2.33;;;11.90;99.90;;;;;;5054272;28;20239;-67
2024/04/07 06:55:16;;;;;;;2.60;2.40;;;12.00;99.90;;;;;;5053272;28;20248;-67
2024/04/07 06:57:42;;;;;;;3.43;2.53;;;12.10;99.90;;;;;;5053963;28;20677;-67
2024/04/07 07:00:11;;;;;;;4.73;2.60;;;12.20;91.70;;;;;;5053555;28;20311;-68
2024/04/07 07:02:37;;;;;;;3.20;2.17;;;12.30;81.20;;;;;;5053768;28;20248;-68
2024/04/07 07:05:05;;;;;;;3.00;2.43;;;12.50;49.20;;;;;;5053721;28;20612;-68
2024/04/07 07:07:32;;;;;;;4.73;2.50;;;12.60;51.90;;;;;;5054123;28;20315;-68
2024/04/07 07:09:59;;;;;;;3.73;2.80;;;12.80;1.00;;;;;;5057663;28;20236;-66
2024/04/07 07:12:25;;;;;;;6.13;2.80;;;12.90;56.70;;;;;;5057919;28;20259;-67
2024/04/07 07:14:52;;;;;;;2.40;2.20;;;13.00;79.30;;;;;;5054919;28;20674;-68
2024/04/07 07:17:19;;;;;;;2.57;2.37;;;13.10;33.10;;;;;;5057286;28;20773;-68
2024/04/07 07:19:46;;;;;;;5.37;2.13;;;13.30;13.50;;;;;;5059735;28;20626;-67
2024/04/07 07:22:12;;;;;;;2.83;2.10;;;13.60;1.00;;;;;;5057420;28;20220;-67
2024/04/07 07:24:40;;;;;;;2.40;2.20;;;13.90;1.00;;;;;;5059097;28;20213;-68
2024/04/07 07:27:06;;;;;;;3.77;1.97;;;14.00;1.00;;;;;;5060992;28;20219;-67
2024/04/07 07:29:33;;;;;;;2.30;1.93;;;14.40;1.00;;;;;;5056727;28;20318;-68
2024/04/07 07:31:59;;;;;;;3.17;1.30;;;15.30;1.00;;;;;;5056841;28;20299;-67
2024/04/07 07:34:27;;;;;;;4.97;1.30;;;16.50;1.00;;;;;;5056573;28;20208;-67
2024/04/07 07:36:53;;;;;;;3.45;1.30;;;17.20;1.00;;;;;;5056547;28;20258;-68
2024/04/07 07:39:20;;;;;;;3.85;1.60;;;17.60;1.00;;;;;;5056451;28;20200;-68
2024/04/07 07:41:47;;;;;;;3.03;1.30;;;17.70;50.00;;;;;;5056503;28;20232;-68
2024/04/07 07:44:14;;;;;;;3.88;1.92;;;17.90;99.90;;;;;;5056099;28;20677;-68
2024/04/07 07:46:40;;;;;;;4.25;1.42;;;17.90;99.90;;;;;;5056110;28;20228;-68
2024/04/07 07:49:07;;;;;;;3.65;1.85;;;17.90;99.90;;;;;;5056073;28;20267;-67
2024/04/07 07:51:33;;;;;;;4.63;2.05;;;17.90;99.90;;;;;;5055923;28;20783;-67
2024/04/07 07:54:00;;;;;;;4.60;1.80;;;18.00;99.90;;;;;;5056043;28;20300;-68
2024/04/07 07:56:26;;;;;;;3.80;1.60;;;18.20;99.90;;;;;;5055612;28;20693;-67
2024/04/07 07:58:54;;;;;;;2.13;1.42;;;18.30;99.90;;;;;;5055863;28;20392;-67
2024/04/07 08:01:20;;;;;;;2.83;1.60;;;18.40;99.90;;;;;;5055889;28;20232;-68
2024/04/07 08:03:47;;;;;;;4.47;1.73;;;18.50;99.90;;;;;;5056625;28;20254;-69
2024/04/07 08:06:13;;;;;;;3.50;1.98;;;18.60;99.90;;;;;;5057786;28;20204;-68
2024/04/07 08:08:39;;;;;;;6.55;1.83;;;18.80;99.90;;;;;;5055861;28;20231;-67
2024/04/07 08:11:05;;;;;;;5.13;1.58;;;18.80;99.90;;;;;;5055473;28;20264;-67
2024/04/07 08:13:33;;;;;;;6.15;1.48;;;18.80;99.90;;;;;;5055883;28;20317;-67
2024/04/07 08:16:02;;;;;;;4.85;1.73;;;18.90;99.90;;;;;;5055615;28;20298;-67
2024/04/07 08:18:30;;;;;;;2.75;1.30;;;19.00;99.90;;;;;;5055646;28;20212;-67
2024/04/07 08:20:57;;;;;;;1.90;1.30;;;19.00;99.90;;;;;;5055634;28;20295;-67
2024/04/07 08:23:24;;;;;;;3.08;1.67;;;19.00;99.90;;;;;;5055815;28;20295;-67
2024/04/07 08:25:51;;;;;;;3.60;1.88;;;19.00;99.90;;;;;;5055628;28;20208;-67
2024/04/07 08:28:17;;;;;;;5.32;2.25;;;19.10;99.90;;;;;;5055138;28;20550;-68
2024/04/07 08:30:44;;;;;;;5.55;1.67;;;19.20;99.90;;;;;;5056374;28;20243;-67
2024/04/07 08:33:11;;;;;;;4.72;1.95;;;19.20;99.90;;;;;;5055816;28;20283;-68
2024/04/07 08:35:38;;;;;;;3.08;1.60;;;19.30;99.90;;;;;;5055555;28;20298;-68
2024/04/07 08:38:04;;;;;;;5.80;1.80;;;19.30;99.90;;;;;;5055726;28;20208;-68
2024/04/07 08:40:33;;;;;;;3.95;1.90;;;19.30;99.90;;;;;;5055382;28;20327;-67
2024/04/07 08:42:59;;;;;;;4.22;1.42;;;19.40;99.90;;;;;;5055669;28;20236;-68
2024/04/07 08:45:27;;;;;;;4.88;1.85;;;19.30;99.90;;;;;;5055330;28;20215;-68
2024/04/07 08:47:54;;;;;;;2.15;1.48;;;19.30;99.90;;;;;;5055453;28;20295;-67
2024/04/07 08:50:23;;;;;;;4.97;1.30;;;19.30;99.90;;;;;;5055640;28;20232;-66
2024/04/07 08:52:49;;;;;;;3.80;1.75;;;19.30;99.90;;;;;;5055589;28;20291;-67
2024/04/07 08:55:16;;;;;;;4.07;2.03;;;19.30;99.90;;;;;;5055346;28;20215;-68
2024/04/07 08:57:43;;;;;;;3.28;1.50;;;19.40;99.90;;;;;;5056148;28;20211;-67
2024/04/07 09:00:13;;;;;;;3.13;1.55;;;19.50;99.90;;;;;;5055618;28;20727;-66
2024/04/07 09:02:40;;;;;;;4.95;1.77;;;19.30;99.90;;;;;;5055334;28;20270;-67
2024/04/07 09:05:07;;;;;;;3.97;1.60;;;19.20;99.90;;;;;;5054963;28;20666;-67
2024/04/07 09:07:34;;;;;;;3.92;1.40;;;19.20;99.90;;;;;;5055715;28;20243;-67
2024/04/07 09:10:01;;;;;;;2.30;1.27;;;19.20;99.90;;;;;;5055219;28;20228;-66
2024/04/07 09:12:28;;;;;;;5.13;1.77;;;19.20;99.90;;;;;;5055317;28;20206;-67
2024/04/07 09:14:56;;;;;;;4.32;1.38;;;19.40;99.90;;;;;;5055683;28;20232;-70
2024/04/07 09:17:24;;;;;;;4.45;1.73;;;19.40;99.90;;;;;;5056071;28;20291;-70
2024/04/07 09:19:51;;;;;;;5.57;1.65;;;19.50;99.90;;;;;;5055248;28;20236;-70
2024/04/07 09:22:19;;;;;;;2.72;1.52;;;19.30;99.90;;;;;;5055939;28;20211;-70
2024/04/07 09:24:48;;;;;;;3.28;1.40;;;19.40;99.90;;;;;;5055877;28;20201;-69
2024/04/07 09:27:17;;;;;;;4.53;1.33;;;19.60;99.90;;;;;;5055690;28;20269;-70
2024/04/07 09:29:44;;;;;;;2.47;1.30;;;19.60;99.90;;;;;;5055803;28;20223;-70
2024/04/07 09:32:11;;;;;;;5.10;1.70;;;19.80;99.90;;;;;;5056217;28;20330;-69
2024/04/07 09:34:38;;;;;;;6.45;2.25;;;19.90;99.90;;;;;;5056139;28;20208;-70
2024/04/07 09:37:05;;;;;;;3.42;1.45;;;19.90;99.90;;;;;;5063122;28;20231;-70
2024/04/07 09:39:33;;;;;;;2.05;1.40;;;20.10;99.90;;;;;;5061768;28;20211;-69
2024/04/07 09:42:02;;;;;;;6.00;2.28;;;20.20;99.90;;;;;;5063682;28;20207;-70
2024/04/07 09:44:34;;;;;;;5.10;1.80;;;20.30;99.90;;;;;;5063651;28;20267;-69
2024/04/07 09:47:03;;;;;;;2.00;1.42;;;20.00;99.90;;;;;;5062937;28;20209;-69
2024/04/07 09:49:36;;;;;;;3.72;1.83;;;20.10;99.90;;;;;;5062887;28;20288;-70
2024/04/07 09:52:04;;;;;;;2.42;1.38;;;20.30;99.90;;;;;;5058765;28;20244;-70
2024/04/07 09:54:40;;;;;;;2.25;1.30;;;20.40;99.90;;;;;;5056597;28;20264;-69
2024/04/07 09:57:10;;;;;;;5.03;1.50;;;20.50;99.90;;;;;;5056048;28;20228;-70
2024/04/07 09:59:39;;;;;;;4.38;1.73;;;20.40;99.90;;;;;;5056115;28;20208;-69
2024/04/07 10:02:05;;;;;;;4.43;1.50;;;20.30;99.90;;;;;;5055460;28;20219;-69
2024/04/07 10:04:34;;;;;;;3.40;1.40;;;20.50;99.90;;;;;;5055671;28;20283;-70
2024/04/07 10:07:01;;;;;;;2.17;1.40;;;20.10;99.90;;;;;;5055731;28;20295;-70
2024/04/07 10:09:29;;;;;;;4.20;1.52;;;20.20;99.90;;;;;;5054954;28;20239;-70
2024/04/07 10:11:55;;;;;;;5.28;1.80;;;20.50;99.90;;;;;;5055052;28;20216;-69
2024/04/07 10:14:24;;;;;;;2.83;1.55;;;20.50;99.90;;;;;;5054304;28;20204;-70
2024/04/07 10:16:51;;;;;;;4.30;1.40;;;20.60;99.90;;;;;;5054436;28;20238;-70
2024/04/07 10:19:19;;;;;;;6.03;1.52;;;20.60;99.90;;;;;;5054918;28;20290;-71
2024/04/07 10:21:46;;;;;;;3.83;1.70;;;20.90;99.90;;;;;;5054506;28;20235;-70
2024/04/07 10:24:13;;;;;;;4.78;1.65;;;21.30;99.90;;;;;;5053566;28;20207;-69
2024/04/07 10:26:40;;;;;;;3.65;1.48;;;21.60;99.90;;;;;;5053124;28;20291;-69
2024/04/07 10:29:08;;;;;;;2.55;1.30;;;21.90;99.90;;;;;;5053568;28;20204;-69
2024/04/07 10:31:37;;;;;;;2.88;1.30;;;22.40;99.90;;;;;;5053428;28;20282;-69
2024/04/07 10:34:04;;;;;;;4.80;2.00;;;22.10;99.90;;;;;;5053385;28;20212;-70
2024/04/07 10:36:34;;;;;;;8.43;1.83;;;22.50;99.90;;;;;;5054055;28;20218;-69
2024/04/07 10:39:03;;;;;;;2.20;1.67;;;22.90;99.90;;;;;;5054679;28;20203;-69
2024/04/07 10:41:31;;;;;;;2.80;1.63;;;23.00;99.90;;;;;;5053530;28;20224;-69
2024/04/07 10:43:58;;;;;;;3.15;1.48;;;23.80;99.90;;;;;;5053288;28;20572;-70
2024/04/07 10:46:25;;;;;;;4.28;1.63;;;24.30;99.90;;;;;;5053149;28;20212;-70
2024/04/07 10:48:54;;;;;;;2.65;1.27;;;24.80;99.90;;;;;;5053229;28;20550;-70
2024/04/07 10:51:20;;;;;;;4.00;1.60;;;25.00;99.90;;;;;;5056148;28;20238;-70
2024/04/07 10:53:59;;;;;;;2.67;1.42;;;24.90;99.90;;;;;;5056924;28;20230;-70
2024/04/07 10:56:25;;;;;;;5.07;1.80;;;25.10;99.90;;;;;;5057657;28;20661;-71
2024/04/07 10:58:52;;;;;;;4.40;1.88;;;25.00;99.90;;;;;;5057419;28;20550;-70
2024/04/07 11:01:18;;;;;;;2.05;1.63;;;25.00;99.90;;;;;;5057341;28;20232;-69
2024/04/07 11:03:47;;;;;;;2.42;1.60;;;24.70;99.80;;;;;;5057251;28;20214;-69
2024/04/07 11:06:14;;;;;;;4.22;1.17;;;24.60;99.90;;;;;;5057418;28;20230;-70
2024/04/07 11:08:41;;;;;;;2.80;1.38;;;25.10;99.90;;;;;;5057621;28;20242;-72
2024/04/07 11:11:09;;;;;;;4.22;1.40;;;24.80;99.00;;;;;;5058785;28;20263;-70
2024/04/07 11:13:36;;;;;;;3.58;1.17;;;24.30;99.30;;;;;;5057463;28;20212;-70
2024/04/07 11:16:02;;;;;;;3.30;1.40;;;24.40;98.90;;;;;;5056836;28;20208;-69
2024/04/07 11:18:32;;;;;;;3.05;1.60;;;24.60;99.00;;;;;;5066013;28;20267;-72
2024/04/07 11:20:59;;;;;;;4.10;1.40;;;24.60;98.90;;;;;;5057340;28;20615;-70
2024/04/07 11:23:28;;;;;;;4.35;1.90;;;24.40;99.10;;;;;;5056921;28;20204;-71
2024/04/07 11:25:55;;;;;;;3.00;1.48;;;25.10;99.60;;;;;;5063648;28;20239;-71
2024/04/07 11:28:23;;;;;;;3.78;1.30;;;25.50;96.60;;;;;;5059138;28;20204;-71
2024/04/07 11:30:50;;;;;;;2.55;1.15;;;25.40;97.50;;;;;;5056623;28;20282;-70
2024/04/07 11:33:17;;;;;;;3.55;1.35;;;25.60;96.40;;;;;;5070289;28;20208;-71
2024/04/07 11:35:44;;;;;;;3.20;1.70;;;25.50;95.80;;;;;;5061166;28;20298;-71
2024/04/07 11:38:12;;;;;;;5.32;1.40;;;25.00;95.20;;;;;;5056645;28;20204;-71
2024/04/07 11:40:40;;;;;;;5.10;1.33;;;25.10;95.20;;;;;;5056409;28;20250;-69
2024/04/07 11:43:08;;;;;;;2.60;1.52;;;25.30;94.80;;;;;;5056068;28;20239;-70
2024/04/07 11:45:34;;;;;;;1.90;1.40;;;25.40;94.90;;;;;;5055835;28;20251;-70
2024/04/07 11:48:02;;;;;;;5.63;1.67;;;25.80;95.30;;;;;;5055970;28;20240;-70
2024/04/07 11:50:28;;;;;;;4.90;1.70;;;27.00;92.30;;;;;;5055583;28;20705;-70
2024/04/07 11:52:55;;;;;;;5.65;1.40;;;27.70;91.40;;;;;;5055707;28;20273;-70
2024/04/07 11:55:22;;;;;;;3.58;1.27;;;28.10;87.50;;;;;;5055939;28;20330;-70
2024/04/07 11:57:50;;;;;;;5.35;1.40;;;28.10;88.40;;;;;;5055656;28;20215;-70
2024/04/07 12:00:17;;;;;;;3.40;1.55;;;27.90;82.20;;;;;;5055837;28;20319;-71
2024/04/07 12:02:44;;;;;;;3.38;1.30;;;27.60;84.60;;;;;;5054574;28;20208;-70
2024/04/07 12:05:11;;;;;;;4.00;1.60;;;27.40;83.40;;;;;;5055820;28;20236;-70
2024/04/07 12:07:37;;;;;;;4.43;1.60;;;27.50;81.90;;;;;;5055900;28;20204;-70
2024/04/07 12:10:04;;;;;;;1.70;1.20;;;27.50;82.30;;;;;;5055763;28;20235;-70
2024/04/07 12:12:31;;;;;;;6.85;1.70;;;27.70;81.80;;;;;;5055348;28;20204;-71
2024/04/07 12:14:59;;;;;;;2.83;1.35;;;27.90;78.90;;;;;;5055660;28;20233;-70
2024/04/07 12:17:26;;;;;;;5.70;1.83;;;27.40;76.00;;;;;;5055428;28;20254;-70
2024/04/07 12:19:53;;;;;;;5.45;1.85;;;27.40;81.50;;;;;;5055445;28;20244;-71
2024/04/07 12:22:22;;;;;;;3.70;1.38;;;26.80;76.70;;;;;;5055497;28;20185;-71
2024/04/07 12:24:49;;;;;;;3.38;1.45;;;27.00;76.00;;;;;;5055497;28;20247;-71
2024/04/07 12:27:18;;;;;;;3.65;1.50;;;27.50;82.60;;;;;;5055370;28;20208;-71
2024/04/07 12:29:44;;;;;;;7.28;1.45;;;28.10;75.00;;;;;;5056874;28;20215;-71
2024/04/07 12:32:12;;;;;;;5.30;1.60;;;28.90;72.40;;;;;;5059501;28;20208;-68
2024/04/07 12:34:38;;;;;;;3.45;1.70;;;29.10;70.40;;;;;;5059223;28;20300;-67
2024/04/07 12:37:05;;;;;;;5.47;1.70;;;29.70;70.60;;;;;;5057606;28;20294;-68
2024/04/07 12:39:32;;;;;;;5.53;1.63;;;30.00;76.40;;;;;;5055722;28;20211;-67
2024/04/07 12:41:59;;;;;;;2.33;1.30;;;30.50;67.50;;;;;;5055310;28;20637;-67
2024/04/07 12:44:25;;;;;;;2.75;1.20;;;30.50;64.00;;;;;;5054890;28;20692;-67
2024/04/07 12:46:52;;;;;;;5.72;1.80;;;30.70;60.50;;;;;;5055234;28;20246;-67
2024/04/07 12:49:22;;;;;;;2.53;1.50;;;30.40;63.30;;;;;;5055053;28;20208;-67
2024/04/07 12:51:49;;;;;;;4.95;1.63;;;30.40;61.30;;;;;;5054630;28;20240;-67